createdAt,value
2018-12-09T00:00:43.122Z,10.83
2018-12-09T00:03:08.962Z,7.37
2018-12-09T00:05:34.886Z,10.10
2018-12-09T00:08:00.723Z,14.47
2018-12-09T00:10:26.675Z,15.57
2018-12-09T00:12:52.417Z,15.23
2018-12-09T00:15:18.156Z,10.83
2018-12-09T00:17:44.008Z,10.50
2018-12-09T00:20:11.038Z,11.93
2018-12-09T00:22:36.764Z,12.60
2018-12-09T00:25:02.924Z,10.77
2018-12-09T00:27:28.666Z,12.20
2018-12-09T00:29:54.390Z,9.13
2018-12-09T00:32:20.124Z,12.73
2018-12-09T00:34:45.863Z,10.27
2018-12-09T00:37:12.006Z,9.23
2018-12-09T00:39:38.762Z,8.60
2018-12-09T00:42:04.872Z,12.47
2018-12-09T00:44:30.628Z,7.53
2018-12-09T00:46:58.291Z,10.23
2018-12-09T00:49:24.020Z,8.27
2018-12-09T00:51:49.846Z,9.47
2018-12-09T00:54:15.580Z,7.73
2018-12-09T00:56:42.546Z,11.13
2018-12-09T00:59:08.431Z,10.10
2018-12-09T01:01:37.172Z,8.07
2018-12-09T01:04:04.038Z,7.13
2018-12-09T01:06:29.887Z,9.77
2018-12-09T01:08:55.806Z,13.73
2018-12-09T01:11:21.740Z,11.47
2018-12-09T01:13:47.486Z,10.03
2018-12-09T01:16:14.154Z,13.20
2018-12-09T01:18:39.899Z,10.07
2018-12-09T01:21:05.787Z,8.63
2018-12-09T01:23:31.607Z,10.83
2018-12-09T01:25:57.345Z,8.57
2018-12-09T01:28:23.079Z,12.37
2018-12-09T01:30:48.880Z,13.97
2018-12-09T01:33:14.622Z,8.90
2018-12-09T01:35:40.379Z,7.83
2018-12-09T01:38:13.173Z,9.67
2018-12-09T01:40:45.336Z,9.33
2018-12-09T01:43:11.183Z,13.90
2018-12-09T01:45:36.928Z,12.13
2018-12-09T01:48:02.782Z,8.57
2018-12-09T01:50:28.641Z,11.30
2018-12-09T01:52:58.486Z,13.23
2018-12-09T01:55:24.546Z,9.67
2018-12-09T01:57:50.275Z,11.30
2018-12-09T02:00:16.239Z,9.37
2018-12-09T02:02:41.995Z,10.63
2018-12-09T02:05:14.646Z,10.17
2018-12-09T02:07:40.387Z,11.10
2018-12-09T02:10:06.347Z,11.43
2018-12-09T02:12:32.088Z,9.60
2018-12-09T02:14:58.254Z,10.47
2018-12-09T02:17:24.499Z,12.03
2018-12-09T02:19:50.691Z,11.30
2018-12-09T02:22:16.430Z,9.40
2018-12-09T02:24:42.271Z,16.13
2018-12-09T02:27:08.128Z,13.00
2018-12-09T02:29:33.879Z,13.20
2018-12-09T02:31:59.640Z,9.67
2018-12-09T02:34:25.594Z,11.90
2018-12-09T02:36:51.442Z,17.43
2018-12-09T02:39:17.186Z,12.97
2018-12-09T02:41:43.031Z,12.47
2018-12-09T02:44:08.762Z,13.47
2018-12-09T02:46:34.920Z,12.87
2018-12-09T02:49:00.780Z,11.07
2018-12-09T02:51:26.627Z,16.30
2018-12-09T02:53:52.363Z,14.63
2018-12-09T02:56:18.202Z,17.10
2018-12-09T02:58:44.054Z,12.77
2018-12-09T03:01:09.911Z,13.97
2018-12-09T03:03:35.835Z,16.30
2018-12-09T03:06:01.680Z,13.07
2018-12-09T03:08:27.415Z,13.40
2018-12-09T03:10:53.263Z,16.47
2018-12-09T03:13:19.395Z,16.57
2018-12-09T03:15:45.148Z,15.63
2018-12-09T03:18:10.900Z,15.13
2018-12-09T03:20:36.732Z,10.47
2018-12-09T03:23:02.478Z,8.90
2018-12-09T03:25:28.204Z,12.50
2018-12-09T03:27:54.047Z,13.87
2018-12-09T03:30:19.997Z,10.83
2018-12-09T03:32:45.816Z,8.87
2018-12-09T03:35:11.761Z,13.13
2018-12-09T03:37:37.499Z,8.53
2018-12-09T03:40:04.167Z,12.73
2018-12-09T03:42:29.995Z,8.87
2018-12-09T03:44:55.714Z,9.70
2018-12-09T03:47:21.559Z,14.63
2018-12-09T03:49:47.412Z,11.40
2018-12-09T03:52:13.246Z,9.60
2018-12-09T03:54:39.283Z,11.70
2018-12-09T03:57:05.235Z,13.83
2018-12-09T03:59:31.058Z,7.63
2018-12-09T04:01:56.904Z,9.23
2018-12-09T04:04:22.730Z,8.13
2018-12-09T04:06:48.600Z,7.07
2018-12-09T04:09:14.433Z,8.47
2018-12-09T04:11:40.392Z,6.37
2018-12-09T04:14:06.123Z,9.63
2018-12-09T04:16:32.390Z,5.07
2018-12-09T04:18:58.215Z,8.77
2018-12-09T04:21:23.961Z,8.03
2018-12-09T04:23:49.702Z,6.47
2018-12-09T04:26:15.448Z,9.07
2018-12-09T04:28:41.277Z,8.13
2018-12-09T04:31:07.047Z,7.77
2018-12-09T04:33:32.903Z,8.63
2018-12-09T04:35:59.058Z,13.23
2018-12-09T04:38:24.899Z,11.50
2018-12-09T04:40:50.666Z,7.93
2018-12-09T04:43:16.515Z,8.30
2018-12-09T04:45:42.347Z,11.33
2018-12-09T04:48:08.107Z,9.50
2018-12-09T04:50:34.172Z,13.10
2018-12-09T04:52:59.919Z,12.47
2018-12-09T04:55:25.746Z,10.83
2018-12-09T04:57:51.615Z,14.63
2018-12-09T05:00:27.402Z,7.80
2018-12-09T05:02:53.144Z,11.50
2018-12-09T05:05:18.890Z,10.70
2018-12-09T05:07:44.662Z,11.10
2018-12-09T05:10:10.429Z,11.47
2018-12-09T05:12:36.199Z,12.83
2018-12-09T05:15:01.953Z,12.43
2018-12-09T05:17:27.787Z,13.20
2018-12-09T05:19:53.625Z,15.77
2018-12-09T05:22:19.374Z,15.07
2018-12-09T05:24:45.126Z,13.03
2018-12-09T05:27:10.865Z,15.20
2018-12-09T05:29:36.827Z,13.97
2018-12-09T05:32:02.639Z,17.13
2018-12-09T05:34:28.382Z,14.60
2018-12-09T05:36:54.443Z,16.73
2018-12-09T05:39:20.302Z,15.70
2018-12-09T05:41:46.127Z,19.03
2018-12-09T05:44:11.982Z,16.43
2018-12-09T05:46:37.714Z,14.77
2018-12-09T05:49:03.534Z,20.07
2018-12-09T05:51:29.249Z,14.13
2018-12-09T05:53:55.119Z,16.23
2018-12-09T05:56:20.953Z,11.60
2018-12-09T05:58:46.679Z,12.10
2018-12-09T06:01:12.525Z,12.23
2018-12-09T06:03:38.291Z,10.90
2018-12-09T06:06:04.128Z,9.47
2018-12-09T06:08:30.094Z,9.23
2018-12-09T06:10:55.943Z,9.97
2018-12-09T06:13:21.994Z,11.47
2018-12-09T06:15:47.942Z,10.63
2018-12-09T06:18:13.717Z,9.07
2018-12-09T06:20:39.575Z,8.97
2018-12-09T06:23:05.466Z,10.90
2018-12-09T06:25:31.309Z,12.40
2018-12-09T06:27:57.477Z,7.77
2018-12-09T06:30:23.254Z,9.77
2018-12-09T06:32:49.035Z,11.33
2018-12-09T06:35:14.953Z,12.47
2018-12-09T06:37:40.894Z,11.57
2018-12-09T06:40:06.738Z,8.67
2018-12-09T06:42:32.768Z,8.53
2018-12-09T06:44:58.625Z,8.60
2018-12-09T06:47:24.467Z,8.57
2018-12-09T06:49:50.429Z,11.37
2018-12-09T06:52:16.275Z,9.43
2018-12-09T06:54:42.006Z,10.00
2018-12-09T06:57:08.276Z,11.13
2018-12-09T06:59:34.032Z,9.83
2018-12-09T07:01:59.763Z,7.60
2018-12-09T07:04:32.592Z,12.63
2018-12-09T07:06:58.329Z,7.20
2018-12-09T07:09:24.202Z,12.93
2018-12-09T07:11:50.365Z,17.57
2018-12-09T07:14:16.134Z,10.17
2018-12-09T07:16:41.970Z,12.70
2018-12-09T07:19:07.854Z,7.67
2018-12-09T07:21:33.657Z,14.30
2018-12-09T07:23:59.434Z,11.87
2018-12-09T07:26:25.598Z,8.87
2018-12-09T07:28:51.451Z,12.97
2018-12-09T07:31:17.186Z,13.43
2018-12-09T07:33:42.931Z,15.97
2018-12-09T07:36:08.701Z,13.43
2018-12-09T07:38:34.467Z,14.60
2018-12-09T07:41:00.655Z,9.07
2018-12-09T07:43:26.535Z,11.97
2018-12-09T07:45:52.295Z,13.23
2018-12-09T07:50:51.110Z,12.37
2018-12-09T07:53:16.838Z,19.90
2018-12-09T07:55:42.595Z,14.07
2018-12-09T07:58:08.447Z,11.77
2018-12-09T08:00:34.206Z,11.40
2018-12-09T08:02:59.925Z,10.10
2018-12-09T08:05:25.655Z,18.20
2018-12-09T08:07:51.370Z,16.20
2018-12-09T08:10:17.129Z,11.37
2018-12-09T08:12:42.955Z,12.80
2018-12-09T08:15:08.795Z,9.87
2018-12-09T08:17:34.522Z,9.47
2018-12-09T08:20:00.382Z,10.10
2018-12-09T08:22:26.206Z,6.77
2018-12-09T08:24:52.102Z,11.43
2018-12-09T08:27:17.954Z,9.83
2018-12-09T08:29:43.695Z,11.53
2018-12-09T08:32:09.423Z,13.73
2018-12-09T08:34:35.182Z,14.63
2018-12-09T08:37:00.907Z,15.83
2018-12-09T08:39:26.627Z,16.37
2018-12-09T08:41:52.476Z,14.67
2018-12-09T08:44:18.203Z,17.87
2018-12-09T08:46:44.067Z,13.10
2018-12-09T08:49:09.794Z,18.63
2018-12-09T08:51:35.534Z,12.10
2018-12-09T08:54:02.774Z,11.57
2018-12-09T08:56:28.830Z,6.77
2018-12-09T08:58:54.578Z,7.17
2018-12-09T09:01:20.321Z,6.70
2018-12-09T09:03:46.056Z,9.60
2018-12-09T09:06:11.825Z,9.60
2018-12-09T09:08:37.676Z,8.70
2018-12-09T09:11:03.504Z,11.47
2018-12-09T09:13:29.246Z,10.93
2018-12-09T09:15:55.001Z,11.70
2018-12-09T09:18:20.755Z,9.47
2018-12-09T09:20:46.627Z,9.83
2018-12-09T09:23:12.463Z,16.50
2018-12-09T09:25:38.350Z,16.07
2018-12-09T09:28:04.166Z,17.23
2018-12-09T09:30:29.985Z,18.33
2018-12-09T09:32:55.707Z,17.70
2018-12-09T09:37:54.014Z,14.73
2018-12-09T09:43:13.330Z,16.97
2018-12-09T09:45:39.143Z,14.57
2018-12-09T09:48:04.979Z,11.77
2018-12-09T09:50:30.706Z,12.07
2018-12-09T09:52:56.462Z,11.63
2018-12-09T09:55:22.311Z,12.47
2018-12-09T09:57:48.073Z,10.77
2018-12-09T10:00:13.829Z,12.83
2018-12-09T10:02:39.680Z,15.03
2018-12-09T10:05:05.627Z,21.10
2018-12-09T10:07:31.385Z,14.47
2018-12-09T10:09:57.122Z,14.90
2018-12-09T10:12:30.075Z,18.57
2018-12-09T10:14:55.802Z,13.90
2018-12-09T10:17:21.528Z,13.30
2018-12-09T10:19:47.273Z,12.97
2018-12-09T10:22:13.126Z,9.33
2018-12-09T10:24:38.878Z,13.60
2018-12-09T10:27:04.634Z,13.67
2018-12-09T10:29:30.460Z,15.23
2018-12-09T10:31:56.186Z,17.07
2018-12-09T10:34:21.921Z,12.50
2018-12-09T10:36:47.661Z,8.57
2018-12-09T10:39:14.652Z,17.27
2018-12-09T10:41:40.433Z,11.53
2018-12-09T10:44:06.658Z,11.83
2018-12-09T10:46:32.931Z,12.00
2018-12-09T10:49:00.118Z,6.87
2018-12-09T10:51:25.839Z,15.43
2018-12-09T10:53:51.601Z,11.77
2018-12-09T10:56:17.354Z,14.97
2018-12-09T10:58:43.114Z,14.13
2018-12-09T11:01:13.726Z,23.67
2018-12-09T11:03:39.475Z,11.13
2018-12-09T11:06:05.303Z,8.90
2018-12-09T11:08:31.025Z,13.07
2018-12-09T11:10:57.191Z,8.30
2018-12-09T11:13:22.922Z,11.43
2018-12-09T11:15:48.642Z,11.07
2018-12-09T11:18:14.491Z,11.37
2018-12-09T11:20:40.441Z,11.80
2018-12-09T11:23:06.170Z,11.40
2018-12-09T11:25:32.002Z,12.37
2018-12-09T11:27:57.778Z,10.37
2018-12-09T11:30:23.622Z,11.87
2018-12-09T11:32:49.464Z,8.00
2018-12-09T11:35:15.313Z,9.87
2018-12-09T11:37:41.055Z,9.73
2018-12-09T11:40:07.089Z,9.40
2018-12-09T11:42:32.842Z,9.33
2018-12-09T11:44:58.599Z,13.37
2018-12-09T11:47:24.543Z,9.10
2018-12-09T11:49:50.306Z,10.03
2018-12-09T11:52:16.070Z,7.47
2018-12-09T11:54:41.952Z,10.20
2018-12-09T11:57:07.787Z,10.70
2018-12-09T11:59:33.652Z,20.60
2018-12-09T12:01:59.395Z,15.40
2018-12-09T12:04:25.223Z,11.37
2018-12-09T12:06:50.962Z,9.83
2018-12-09T12:09:16.811Z,9.27
2018-12-09T12:11:42.693Z,9.87
2018-12-09T12:14:08.446Z,6.47
2018-12-09T12:16:34.290Z,7.63
2018-12-09T12:19:00.046Z,4.47
2018-12-09T12:21:25.782Z,6.63
2018-12-09T12:23:51.498Z,6.33
2018-12-09T12:26:17.589Z,6.00
2018-12-09T12:28:50.549Z,5.17
2018-12-09T12:31:16.419Z,6.20
2018-12-09T12:33:42.150Z,4.73
2018-12-09T12:36:07.882Z,4.67
2018-12-09T12:38:33.782Z,6.70
2018-12-09T12:40:59.675Z,9.23
2018-12-09T12:43:25.513Z,7.97
2018-12-09T12:45:51.372Z,10.47
2018-12-09T12:48:17.122Z,11.23
2018-12-09T12:50:42.963Z,13.83
2018-12-09T12:53:08.801Z,8.10
2018-12-09T12:55:34.643Z,8.73
2018-12-09T12:58:00.458Z,5.67
2018-12-09T13:00:41.528Z,5.80
2018-12-09T13:03:07.375Z,5.73
2018-12-09T13:05:33.219Z,6.13
2018-12-09T13:07:58.961Z,5.63
2018-12-09T13:10:24.699Z,5.33
2018-12-09T13:12:50.535Z,7.80
2018-12-09T13:15:16.494Z,5.77
2018-12-09T13:17:42.356Z,7.60
2018-12-09T13:20:08.202Z,7.80
2018-12-09T13:22:34.026Z,7.40
2018-12-09T13:24:59.773Z,5.23
2018-12-09T13:27:25.635Z,6.23
2018-12-09T13:29:51.378Z,7.77
2018-12-09T13:32:17.208Z,8.33
2018-12-09T13:34:43.045Z,6.73
2018-12-09T13:37:08.882Z,6.47
2018-12-09T13:39:34.751Z,7.53
2018-12-09T13:42:00.591Z,6.83
2018-12-09T13:44:26.419Z,6.50
2018-12-09T13:46:52.152Z,9.07
2018-12-09T13:49:17.943Z,6.60
2018-12-09T13:51:43.786Z,9.13
2018-12-09T13:54:09.512Z,12.40
2018-12-09T13:56:35.229Z,9.30
2018-12-09T13:59:01.169Z,9.27
2018-12-09T14:01:26.921Z,12.67
2018-12-09T14:03:52.659Z,10.90
2018-12-09T14:06:18.501Z,10.63
2018-12-09T14:08:44.358Z,8.47
2018-12-09T14:11:10.222Z,10.50
2018-12-09T14:13:35.979Z,13.03
2018-12-09T14:16:01.718Z,9.83
2018-12-09T14:18:27.647Z,10.53
2018-12-09T14:20:53.358Z,12.10
2018-12-09T14:23:19.068Z,7.83
2018-12-09T14:25:45.003Z,10.07
2018-12-09T14:28:10.789Z,12.67
2018-12-09T14:30:36.528Z,11.50
2018-12-09T14:33:02.629Z,10.23
2018-12-09T14:35:28.378Z,15.70
2018-12-09T14:37:54.132Z,12.87
2018-12-09T14:40:20.083Z,13.03
2018-12-09T14:42:45.934Z,15.77
2018-12-09T14:45:11.749Z,12.33
2018-12-09T14:47:37.594Z,16.70
2018-12-09T14:50:03.714Z,13.10
2018-12-09T14:52:29.450Z,14.33
2018-12-09T14:54:55.162Z,14.43
2018-12-09T14:57:21.006Z,14.20
2018-12-09T14:59:46.742Z,16.00
2018-12-09T15:02:12.468Z,13.50
2018-12-09T15:04:38.218Z,14.30
2018-12-09T15:07:04.066Z,18.77
2018-12-09T15:09:29.902Z,15.70
2018-12-09T15:11:56.056Z,12.80
2018-12-09T15:14:21.897Z,12.83
2018-12-09T15:16:47.638Z,12.73
2018-12-09T15:19:13.386Z,12.23
2018-12-09T15:21:39.124Z,17.50
2018-12-09T15:24:04.874Z,14.30
2018-12-09T15:26:30.798Z,16.03
2018-12-09T15:28:56.766Z,15.07
2018-12-09T15:31:22.497Z,18.63
2018-12-09T15:33:48.241Z,22.37
2018-12-09T15:36:13.964Z,17.70
2018-12-09T15:38:41.999Z,16.33
2018-12-09T15:41:07.733Z,20.47
2018-12-09T15:43:33.465Z,15.90
2018-12-09T15:48:28.626Z,18.40
2018-12-09T15:50:54.673Z,19.93
2018-12-09T15:53:20.510Z,24.73
2018-12-09T15:55:46.222Z,23.07
2018-12-09T15:58:11.942Z,19.07
2018-12-09T16:00:39.702Z,19.00
2018-12-09T16:03:05.497Z,20.47
2018-12-09T16:05:31.219Z,21.10
2018-12-09T16:07:56.954Z,17.17
2018-12-09T16:10:22.786Z,13.63
2018-12-09T16:12:48.642Z,16.80
2018-12-09T16:15:14.370Z,16.80
2018-12-09T16:17:40.122Z,21.87
2018-12-09T16:20:05.945Z,11.57
2018-12-09T16:22:31.662Z,16.00
2018-12-09T16:24:57.395Z,21.67
2018-12-09T16:27:23.109Z,14.43
2018-12-09T16:29:48.910Z,15.63
2018-12-09T16:32:14.748Z,20.10
2018-12-09T16:34:40.505Z,17.30
2018-12-09T16:37:06.247Z,17.00
2018-12-09T16:39:32.107Z,16.13
2018-12-09T16:41:57.838Z,20.33
2018-12-09T16:44:23.579Z,16.73
2018-12-09T16:46:49.301Z,18.87
2018-12-09T16:49:15.161Z,20.90
2018-12-09T16:51:40.981Z,20.10
2018-12-09T16:54:06.731Z,19.53
2018-12-09T16:56:32.655Z,20.87
2018-12-09T16:58:58.486Z,21.30
2018-12-09T17:01:31.099Z,21.00
2018-12-09T17:03:56.877Z,22.50
2018-12-09T17:06:22.699Z,21.50
2018-12-09T17:08:48.458Z,14.47
2018-12-09T17:11:14.206Z,21.83
2018-12-09T17:13:40.067Z,20.30
2018-12-09T17:16:05.825Z,17.83
2018-12-09T17:18:31.598Z,16.30
2018-12-09T17:20:57.341Z,14.33
2018-12-09T17:23:23.065Z,18.17
2018-12-09T17:25:48.826Z,23.00
2018-12-09T17:28:14.545Z,22.23
2018-12-09T17:30:40.282Z,20.17
2018-12-09T17:33:06.021Z,20.90
2018-12-09T17:35:32.051Z,18.20
2018-12-09T17:37:57.771Z,20.27
2018-12-09T17:40:23.522Z,18.67
2018-12-09T17:42:49.278Z,15.17
2018-12-09T17:45:15.146Z,18.50
2018-12-09T17:47:40.895Z,19.17
2018-12-09T17:50:07.250Z,18.47
2018-12-09T17:52:33.006Z,15.53
2018-12-09T17:54:58.825Z,16.00
2018-12-09T17:57:24.569Z,18.73
2018-12-09T17:59:50.321Z,17.37
2018-12-09T18:02:16.049Z,19.17
2018-12-09T18:04:41.900Z,13.13
2018-12-09T18:07:07.640Z,16.63
2018-12-09T18:09:33.391Z,19.83
2018-12-09T18:11:59.335Z,15.93
2018-12-09T18:14:25.085Z,17.70
2018-12-09T18:16:50.847Z,14.50
2018-12-09T18:19:16.800Z,12.67
2018-12-09T18:21:49.611Z,14.70
2018-12-09T18:24:15.339Z,11.87
2018-12-09T18:26:41.202Z,13.80
2018-12-09T18:29:06.938Z,13.13
2018-12-09T18:31:33.187Z,16.00
2018-12-09T18:33:58.930Z,15.80
2018-12-09T18:36:24.666Z,12.90
2018-12-09T18:38:50.487Z,22.20
2018-12-09T18:41:16.351Z,17.07
2018-12-09T18:43:49.181Z,16.80
2018-12-09T18:46:14.931Z,21.57
2018-12-09T18:48:40.768Z,22.03
2018-12-09T18:51:06.606Z,19.40
2018-12-09T18:53:32.459Z,20.00
2018-12-09T18:55:58.246Z,19.07
2018-12-09T18:58:24.054Z,18.33
2018-12-09T19:00:49.902Z,18.83
2018-12-09T19:03:15.653Z,17.10
2018-12-09T19:05:41.514Z,18.57
2018-12-09T19:08:07.390Z,23.10
2018-12-09T19:10:33.361Z,17.97
2018-12-09T19:12:59.212Z,20.00
2018-12-09T19:15:24.950Z,19.83
2018-12-09T19:17:50.705Z,19.20
2018-12-09T19:20:16.456Z,20.70
2018-12-09T19:22:42.207Z,18.50
2018-12-09T19:25:08.030Z,15.23
2018-12-09T19:27:33.767Z,17.97
2018-12-09T19:29:59.607Z,21.23
2018-12-09T19:32:32.469Z,14.23
2018-12-09T19:34:58.210Z,16.27
2018-12-09T19:37:23.947Z,17.30
2018-12-09T19:39:49.714Z,11.60
2018-12-09T19:42:15.454Z,12.27
2018-12-09T19:44:41.317Z,13.50
2018-12-09T19:47:07.170Z,17.20
2018-12-09T19:49:33.042Z,19.13
2018-12-09T19:51:58.885Z,19.03
2018-12-09T19:54:24.719Z,20.23
2018-12-09T19:56:50.556Z,16.33
2018-12-09T19:59:16.407Z,20.20
2018-12-09T20:01:42.157Z,19.87
2018-12-09T20:04:07.928Z,19.47
2018-12-09T20:06:33.774Z,22.33
2018-12-09T20:08:59.521Z,16.57
2018-12-09T20:11:25.351Z,18.80
2018-12-09T20:13:51.175Z,16.63
2018-12-09T20:16:16.898Z,19.00
2018-12-09T20:18:42.638Z,19.17
2018-12-09T20:21:08.588Z,19.63
2018-12-09T20:23:34.339Z,18.00
2018-12-09T20:26:00.095Z,13.53
2018-12-09T20:28:25.868Z,18.77
2018-12-09T20:30:51.698Z,12.17
2018-12-09T20:33:17.455Z,12.73
2018-12-09T20:35:43.254Z,13.73
2018-12-09T20:38:08.980Z,15.80
2018-12-09T20:40:34.814Z,13.33
2018-12-09T20:43:00.550Z,12.93
2018-12-09T20:45:26.404Z,12.93
2018-12-09T20:47:52.266Z,11.97
2018-12-09T20:50:18.024Z,10.60
2018-12-09T20:52:43.782Z,15.60
2018-12-09T20:55:09.561Z,17.03
2018-12-09T20:57:35.401Z,12.93
2018-12-09T21:00:01.360Z,7.63
2018-12-09T21:02:27.310Z,14.13
2018-12-09T21:04:53.067Z,12.73
2018-12-09T21:07:19.351Z,12.33
2018-12-09T21:09:45.179Z,13.97
2018-12-09T21:12:10.999Z,11.03
2018-12-09T21:14:36.756Z,13.07
2018-12-09T21:17:02.520Z,13.67
2018-12-09T21:19:28.263Z,13.00
2018-12-09T21:22:01.138Z,12.67
2018-12-09T21:24:26.920Z,13.03
2018-12-09T21:26:52.775Z,13.57
2018-12-09T21:29:18.610Z,11.97
2018-12-09T21:31:44.366Z,10.53
2018-12-09T21:34:10.089Z,12.77
2018-12-09T21:36:35.851Z,12.30
2018-12-09T21:39:01.815Z,19.97
2018-12-09T21:41:27.577Z,12.97
2018-12-09T21:43:53.301Z,11.83
2018-12-09T21:46:19.155Z,12.93
2018-12-09T21:48:44.875Z,10.60
2018-12-09T21:51:10.642Z,17.43
2018-12-09T21:53:36.375Z,12.63
2018-12-09T21:56:03.337Z,14.33
2018-12-09T21:58:29.125Z,17.80
2018-12-09T22:00:54.994Z,18.47
2018-12-09T22:03:20.739Z,13.33
2018-12-09T22:05:46.487Z,18.30
2018-12-09T22:08:12.209Z,10.93
2018-12-09T22:10:39.117Z,14.67
2018-12-09T22:13:05.125Z,10.28
2018-12-09T22:15:30.952Z,11.85
2018-12-09T22:17:56.782Z,15.80
2018-12-09T22:20:22.503Z,15.20
2018-12-09T22:22:48.254Z,15.70
2018-12-09T22:25:14.028Z,14.77
2018-12-09T22:27:39.771Z,14.20
2018-12-09T22:30:05.611Z,16.80
2018-12-09T22:32:31.434Z,14.77
2018-12-09T22:34:57.168Z,9.30
2018-12-09T22:37:22.899Z,5.83
2018-12-09T22:39:48.632Z,5.97
2018-12-09T22:42:14.579Z,8.43
2018-12-09T22:44:40.459Z,7.47
2018-12-09T22:47:06.354Z,5.63
2018-12-09T22:49:32.066Z,6.60
2018-12-09T22:51:57.805Z,9.40
2018-12-09T22:54:23.652Z,11.13
2018-12-09T22:56:49.446Z,7.97
2018-12-09T22:59:15.181Z,10.73
2018-12-09T23:01:43.443Z,16.50
2018-12-09T23:04:09.935Z,9.75
2018-12-09T23:06:35.758Z,10.38
2018-12-09T23:09:01.496Z,13.93
2018-12-09T23:11:27.337Z,12.03
2018-12-09T23:13:53.066Z,11.93
2018-12-09T23:16:18.906Z,16.63
2018-12-09T23:18:44.673Z,13.57
2018-12-09T23:21:10.510Z,9.90
2018-12-09T23:23:43.326Z,18.97
2018-12-09T23:26:09.093Z,14.65
2018-12-09T23:28:34.947Z,15.10
2018-12-09T23:31:01.691Z,13.77
2018-12-09T23:33:27.550Z,14.45
2018-12-09T23:35:53.282Z,13.43
2018-12-09T23:38:19.014Z,12.10
2018-12-09T23:40:44.834Z,18.50
2018-12-09T23:43:10.573Z,10.63
2018-12-09T23:45:36.293Z,11.43
2018-12-09T23:48:02.123Z,15.00
2018-12-09T23:50:27.862Z,14.77
2018-12-09T23:52:53.619Z,12.87
2018-12-09T23:55:19.506Z,11.60
2018-12-09T23:57:45.263Z,10.87
